Time;durP1;ratioP1;P1;durP2;ratioP2;P2;SDS_P1;SDS_P2;PMS_P1;PMS_P2;Temp;Humidity;BMP_temperature;BMP_pressure;BME280_temperature;BME280_humidity;BME280_pressure;Samples;Min_cycle;Max_cycle;Signal;HPM_P1;HPM_P2
2021/09/16 00:00:42;;;;;;;18.33;11.80;;;;;;;20.01;73.86;100672.00;4975951;28;20077;-91
2021/09/16 00:03:08;;;;;;;17.15;11.23;;;;;;;19.96;73.94;100683.16;4974855;28;20027;-92
2021/09/16 00:05:33;;;;;;;15.27;12.27;;;;;;;19.75;74.59;100680.03;4973545;28;20170;-92
2021/09/16 00:07:58;;;;;;;15.15;9.85;;;;;;;19.57;75.64;100677.41;4973208;28;20029;-92
2021/09/16 00:10:24;;;;;;;14.48;10.18;;;;;;;19.50;76.04;100679.00;4972783;28;20029;-92
2021/09/16 00:12:49;;;;;;;12.07;9.55;;;;;;;19.52;75.78;100679.69;4972425;28;20034;-92
2021/09/16 00:15:15;;;;;;;12.68;9.43;;;;;;;19.41;75.88;100686.06;4971847;28;20098;-92
2021/09/16 00:17:40;;;;;;;14.23;9.02;;;;;;;19.48;75.46;100688.97;4973148;28;20018;-92
2021/09/16 00:20:07;;;;;;;12.55;9.00;;;;;;;19.49;75.36;100687.97;4973276;28;20027;-92
2021/09/16 00:22:33;;;;;;;12.93;10.20;;;;;;;19.42;75.57;100688.59;4972954;28;20090;-92
2021/09/16 00:24:58;;;;;;;12.50;9.32;;;;;;;19.38;75.97;100691.72;4972895;28;20441;-91
2021/09/16 00:27:24;;;;;;;10.93;8.80;;;;;;;19.37;76.19;100692.72;4972702;28;20536;-91
2021/09/16 00:29:49;;;;;;;13.65;9.15;;;;;;;19.49;74.96;100685.31;4972462;28;20030;-91
2021/09/16 00:32:14;;;;;;;16.00;11.10;;;;;;;19.56;74.68;100683.69;4972846;28;20019;-93
2021/09/16 00:34:40;;;;;;;17.73;12.00;;;;;;;19.50;75.00;100681.66;4973037;28;20030;-89
2021/09/16 00:37:05;;;;;;;13.40;10.65;;;;;;;19.52;75.22;100690.34;4972999;28;20031;-90
2021/09/16 00:39:31;;;;;;;13.88;10.95;;;;;;;19.51;75.23;100675.34;4972878;28;20448;-90
2021/09/16 00:41:56;;;;;;;15.50;11.43;;;;;;;19.43;75.44;100676.09;4974086;28;20078;-91
2021/09/16 00:44:21;;;;;;;15.80;10.40;;;;;;;19.40;75.11;100676.44;4976493;28;20485;-89
2021/09/16 00:46:47;;;;;;;13.82;9.80;;;;;;;19.41;74.88;100668.31;4976551;28;20117;-90
2021/09/16 00:49:12;;;;;;;14.35;10.23;;;;;;;19.38;74.57;100665.94;4976765;28;20070;-90
2021/09/16 00:51:39;;;;;;;13.13;9.38;;;;;;;19.37;74.30;100674.06;4976788;28;20030;-90
2021/09/16 00:54:05;;;;;;;12.57;10.10;;;;;;;19.33;74.57;100680.69;4976531;28;20031;-91
2021/09/16 00:56:31;;;;;;;14.60;10.52;;;;;;;19.29;74.43;100680.16;4976014;28;20035;-90
2021/09/16 00:58:58;;;;;;;13.68;10.02;;;;;;;19.25;74.57;100683.28;4976175;28;20035;-90
2021/09/16 01:01:24;;;;;;;12.43;9.85;;;;;;;19.15;73.83;100683.38;4976240;28;20058;-90
2021/09/16 01:03:50;;;;;;;14.32;9.43;;;;;;;19.16;74.10;100691.22;4976398;28;20436;-91
2021/09/16 01:06:16;;;;;;;14.15;10.68;;;;;;;19.02;74.75;100683.78;4976428;28;20023;-90
2021/09/16 01:08:42;;;;;;;14.85;10.02;;;;;;;18.99;75.50;100674.25;4977434;28;20066;-90
2021/09/16 01:11:07;;;;;;;18.77;10.63;;;;;;;19.00;75.49;100689.25;4977766;28;20118;-90
2021/09/16 01:13:32;;;;;;;14.82;11.15;;;;;;;18.94;75.87;100681.06;4976892;28;20048;-90
2021/09/16 01:15:58;;;;;;;15.02;9.40;;;;;;;18.94;76.47;100678.38;4976517;28;20441;-89
2021/09/16 01:18:25;;;;;;;15.38;9.80;;;;;;;18.96;76.44;100689.72;4976522;28;20034;-89
2021/09/16 01:20:50;;;;;;;11.80;9.65;;;;;;;18.99;75.89;100690.22;4976407;28;20047;-92
2021/09/16 01:23:16;;;;;;;12.75;10.07;;;;;;;18.87;76.44;100687.94;4974892;28;20580;-90
2021/09/16 01:25:41;;;;;;;14.90;10.85;;;;;;;18.81;76.86;100689.41;4976147;28;20029;-90
2021/09/16 01:28:07;;;;;;;18.95;12.70;;;;;;;18.65;79.02;100702.50;4976139;28;20031;-91
2021/09/16 01:30:32;;;;;;;24.02;13.25;;;;;;;18.67;80.41;100705.84;4975867;28;20031;-90
2021/09/16 01:32:58;;;;;;;22.90;12.48;;;;;;;18.54;82.03;100706.19;4976403;28;20583;-90
2021/09/16 01:35:24;;;;;;;20.10;12.82;;;;;;;18.57;82.15;100703.25;4974683;28;20034;-91
2021/09/16 01:37:50;;;;;;;17.10;12.82;;;;;;;18.77;80.57;100702.13;4975537;28;20474;-91
2021/09/16 01:40:15;;;;;;;17.73;12.50;;;;;;;18.81;80.01;100697.38;4975852;28;20035;-92
2021/09/16 01:42:43;;;;;;;18.25;13.90;;;;;;;19.21;78.22;100694.28;4975834;28;20062;-91
2021/09/16 01:45:20;;;;;;;20.55;14.57;;;;;;;19.59;75.88;100688.72;4975227;28;20043;-92
2021/09/16 01:47:47;;;;;;;21.67;13.82;;;;;;;19.70;74.88;100682.28;4975715;28;20078;-91
2021/09/16 01:50:14;;;;;;;14.68;12.35;;;;;;;19.71;74.53;100679.50;4975761;28;20426;-91
2021/09/16 01:52:40;;;;;;;14.65;11.85;;;;;;;19.74;74.28;100679.19;4975452;28;20537;-92
2021/09/16 01:55:06;;;;;;;17.10;12.07;;;;;;;19.73;74.07;100680.19;4974816;28;20114;-91
2021/09/16 01:57:33;;;;;;;15.25;11.55;;;;;;;19.77;73.98;100681.53;4975553;28;20390;-91
2021/09/16 01:59:58;;;;;;;14.32;10.40;;;;;;;19.81;73.67;100679.41;4978149;28;20472;-91
2021/09/16 02:02:24;;;;;;;16.63;11.85;;;;;;;19.68;73.77;100682.44;4994903;28;20517;-91
2021/09/16 02:04:49;;;;;;;13.65;10.18;;;;;;;19.42;74.45;100672.63;4995395;28;20034;-91
2021/09/16 02:07:14;;;;;;;16.83;11.13;;;;;;;19.33;74.69;100662.91;4995201;28;20026;-91
2021/09/16 02:09:40;;;;;;;13.68;9.73;;;;;;;19.25;75.89;100678.81;4980685;28;20031;-91
2021/09/16 02:12:06;;;;;;;15.52;10.23;;;;;;;19.21;76.67;100677.44;4975204;28;20033;-92
2021/09/16 02:14:31;;;;;;;15.23;10.77;;;;;;;19.45;74.67;100673.28;4975239;28;20030;-92
2021/09/16 02:16:57;;;;;;;12.02;9.60;;;;;;;19.23;75.35;100675.47;4973969;28;20081;-91
2021/09/16 02:19:22;;;;;;;15.20;10.52;;;;;;;19.21;75.80;100683.63;4974896;28;20030;-91
2021/09/16 02:21:47;;;;;;;18.67;10.00;;;;;;;19.19;75.05;100682.09;4974742;28;20044;-91
2021/09/16 02:24:13;;;;;;;13.07;9.70;;;;;;;19.14;75.74;100682.56;4974658;28;20045;-92
2021/09/16 02:26:38;;;;;;;17.83;11.10;;;;;;;19.44;74.54;100672.47;4974720;28;20484;-91
2021/09/16 02:29:03;;;;;;;15.05;10.98;;;;;;;19.67;73.36;100675.47;4974815;28;20106;-91
2021/09/16 02:31:29;;;;;;;13.63;10.77;;;;;;;19.66;72.75;100675.63;4974840;28;20065;-92
2021/09/16 02:33:54;;;;;;;15.07;10.95;;;;;;;19.65;72.67;100680.13;4974860;28;20385;-91
2021/09/16 02:36:20;;;;;;;13.95;10.57;;;;;;;19.61;72.44;100679.59;4974785;28;20063;-91
2021/09/16 02:38:45;;;;;;;11.50;9.43;;;;;;;19.65;72.39;100690.78;4973847;28;20031;-92
2021/09/16 02:41:10;;;;;;;14.45;10.35;;;;;;;19.62;72.22;100675.91;4974464;28;20027;-91
2021/09/16 02:43:36;;;;;;;16.02;11.70;;;;;;;19.53;72.34;100676.00;4977839;28;20061;-91
2021/09/16 02:46:01;;;;;;;14.75;11.48;;;;;;;19.48;72.35;100681.00;4969983;28;20062;-92
2021/09/16 02:48:27;;;;;;;16.33;10.70;;;;;;;19.50;72.83;100677.16;4972633;28;20118;-92
2021/09/16 02:50:52;;;;;;;15.77;11.88;;;;;;;19.30;73.18;100678.34;4973848;28;20129;-92
2021/09/16 02:53:18;;;;;;;15.70;11.95;;;;;;;19.10;74.18;100675.88;4981417;28;20035;-91
2021/09/16 02:55:43;;;;;;;11.95;10.27;;;;;;;18.97;74.98;100678.06;4973485;28;20029;-91
2021/09/16 02:58:09;;;;;;;11.63;9.70;;;;;;;18.96;74.42;100674.59;4973502;28;20038;-92
2021/09/16 03:00:34;;;;;;;10.50;9.40;;;;;;;18.85;74.97;100672.13;4974282;28;20393;-92
2021/09/16 03:03:00;;;;;;;11.25;9.35;;;;;;;18.75;75.42;100676.66;4974170;28;20054;-92
2021/09/16 03:05:25;;;;;;;14.70;10.63;;;;;;;18.66;75.29;100672.25;4973727;28;20023;-92
2021/09/16 03:07:51;;;;;;;12.25;9.65;;;;;;;18.56;75.29;100683.78;4973972;28;20034;-91
2021/09/16 03:10:16;;;;;;;14.15;9.82;;;;;;;18.55;75.49;100682.09;4974013;28;20429;-91
2021/09/16 03:12:42;;;;;;;13.13;10.52;;;;;;;18.54;75.14;100684.91;4974028;28;20525;-91
2021/09/16 03:15:08;;;;;;;12.15;9.82;;;;;;;18.46;74.97;100680.34;4973828;28;20485;-92
2021/09/16 03:17:34;;;;;;;14.20;10.82;;;;;;;18.43;74.67;100683.31;4973698;28;20034;-91
2021/09/16 03:19:59;;;;;;;14.75;11.10;;;;;;;18.76;73.86;100680.97;4972808;28;20077;-91
2021/09/16 03:22:24;;;;;;;14.18;10.77;;;;;;;18.94;72.45;100676.56;4973917;28;20382;-91
2021/09/16 03:24:50;;;;;;;11.45;9.63;;;;;;;18.91;72.36;100663.53;4973819;28;20498;-92
2021/09/16 03:27:15;;;;;;;15.80;11.18;;;;;;;18.96;71.97;100679.06;4973532;28;20109;-91
2021/09/16 03:29:40;;;;;;;11.48;9.85;;;;;;;18.99;71.68;100681.41;4971535;28;20038;-92
2021/09/16 03:32:06;;;;;;;16.10;10.35;;;;;;;18.94;71.23;100684.53;4973130;28;20031;-92
2021/09/16 03:34:32;;;;;;;13.43;10.52;;;;;;;18.93;71.21;100677.53;4973201;28;20110;-92
2021/09/16 03:36:57;;;;;;;13.02;10.38;;;;;;;18.88;71.06;100682.50;4973464;28;20109;-92
2021/09/16 03:39:23;;;;;;;13.50;10.10;;;;;;;18.87;71.31;100688.78;4973727;28;20031;-91
2021/09/16 03:41:48;;;;;;;13.15;10.35;;;;;;;18.81;71.10;100687.56;4973536;28;20058;-91
2021/09/16 03:44:13;;;;;;;10.50;9.40;;;;;;;18.78;70.36;100681.69;4973466;28;20039;-92
2021/09/16 03:46:39;;;;;;;13.63;10.55;;;;;;;18.71;70.74;100684.09;4973242;28;20054;-92
2021/09/16 03:49:04;;;;;;;12.23;9.70;;;;;;;18.66;70.58;100680.22;4973424;28;20489;-92
2021/09/16 03:51:29;;;;;;;12.00;9.90;;;;;;;18.66;70.43;100689.06;4973339;28;20054;-92
2021/09/16 03:53:55;;;;;;;14.38;10.48;;;;;;;18.60;70.38;100693.16;4973525;28;20061;-91
2021/09/16 03:56:20;;;;;;;12.68;10.55;;;;;;;18.53;70.35;100692.06;4972944;28;20034;-92
2021/09/16 03:58:45;;;;;;;12.48;10.85;;;;;;;18.44;70.50;100679.66;4973447;28;20473;-92
2021/09/16 04:01:11;;;;;;;13.32;11.25;;;;;;;18.48;70.21;100691.66;4973062;28;20482;-92
2021/09/16 04:03:36;;;;;;;14.88;11.07;;;;;;;18.53;70.14;100686.75;4973624;28;20038;-92
2021/09/16 04:06:01;;;;;;;14.43;11.85;;;;;;;18.48;70.14;100683.69;4973491;28;20030;-92
2021/09/16 04:08:27;;;;;;;13.30;10.75;;;;;;;18.53;69.81;100689.41;4973672;28;20037;-91
2021/09/16 04:10:52;;;;;;;12.57;10.70;;;;;;;18.52;69.88;100693.06;4953965;28;20035;-92
2021/09/16 04:13:17;;;;;;;13.13;10.75;;;;;;;18.49;69.77;100689.84;4953987;28;20429;-92
2021/09/16 04:15:43;;;;;;;11.88;10.30;;;;;;;18.14;70.76;100683.44;4953957;28;20437;-92
2021/09/16 04:18:08;;;;;;;14.32;10.98;;;;;;;18.22;71.16;100686.19;4953650;28;20023;-91
2021/09/16 04:20:34;;;;;;;16.48;10.48;;;;;;;18.01;71.77;100689.94;4953918;28;20470;-92
2021/09/16 04:22:59;;;;;;;13.63;10.25;;;;;;;17.83;72.87;100679.22;4953797;28;20034;-91
2021/09/16 04:25:24;;;;;;;13.85;10.32;;;;;;;17.75;72.99;100681.75;4971446;28;20023;-91
2021/09/16 04:27:50;;;;;;;13.00;11.60;;;;;;;17.94;71.79;100680.88;4971463;28;20089;-92
2021/09/16 04:30:15;;;;;;;16.83;11.35;;;;;;;17.82;72.08;100680.16;4972988;28;20031;-91
2021/09/16 04:32:41;;;;;;;15.00;10.07;;;;;;;17.72;72.69;100674.06;4973197;28;20475;-92
2021/09/16 04:35:07;;;;;;;15.35;10.27;;;;;;;17.72;73.09;100679.38;4972989;28;20039;-91
2021/09/16 04:37:33;;;;;;;23.17;13.35;;;;;;;17.68;72.17;100677.97;4972945;28;20039;-91
2021/09/16 04:39:58;;;;;;;17.63;12.63;;;;;;;17.58;72.12;100683.31;4972650;28;20031;-92
2021/09/16 04:42:24;;;;;;;17.85;12.60;;;;;;;17.37;72.84;100688.78;4972830;28;20437;-91
2021/09/16 04:44:49;;;;;;;17.40;13.00;;;;;;;17.56;72.69;100685.28;4972850;28;20038;-91
2021/09/16 04:47:14;;;;;;;16.05;12.75;;;;;;;17.49;72.89;100691.28;4972822;28;20089;-92
2021/09/16 04:49:40;;;;;;;18.65;13.07;;;;;;;17.49;72.82;100688.63;4972869;28;20019;-91
2021/09/16 04:52:05;;;;;;;18.70;13.57;;;;;;;17.55;73.34;100690.72;4972771;28;20390;-91
2021/09/16 04:54:31;;;;;;;17.10;12.95;;;;;;;17.41;73.54;100690.19;4972512;28;20031;-90
2021/09/16 04:56:56;;;;;;;19.02;13.15;;;;;;;17.32;73.90;100691.03;4972497;28;20027;-92
2021/09/16 04:59:21;;;;;;;23.75;14.52;;;;;;;17.29;73.84;100699.28;4972732;28;20486;-92
2021/09/16 05:01:47;;;;;;;21.98;14.88;;;;;;;17.24;73.98;100688.25;4972574;28;20057;-92
2021/09/16 05:04:12;;;;;;;21.40;14.15;;;;;;;17.23;74.09;100691.88;4972947;28;20031;-91
2021/09/16 05:06:38;;;;;;;26.60;16.55;;;;;;;17.22;74.38;100693.69;4972480;28;20114;-91
2021/09/16 05:09:03;;;;;;;28.33;17.15;;;;;;;17.31;73.94;100697.31;4972591;28;20418;-91
2021/09/16 05:11:29;;;;;;;26.77;18.95;;;;;;;17.60;73.03;100696.44;4972558;28;20022;-91
2021/09/16 05:13:54;;;;;;;21.67;16.83;;;;;;;17.75;71.67;100688.84;4972621;28;20495;-92
2021/09/16 05:16:20;;;;;;;21.63;16.33;;;;;;;17.83;71.93;100686.31;4972389;28;20039;-91
2021/09/16 05:18:45;;;;;;;17.75;14.70;;;;;;;17.85;72.03;100687.03;4971889;28;20042;-92
2021/09/16 05:21:11;;;;;;;17.63;13.65;;;;;;;17.76;71.88;100686.06;4972305;28;20022;-92
2021/09/16 05:23:37;;;;;;;26.02;16.13;;;;;;;17.66;71.35;100685.25;4972080;28;20114;-91
2021/09/16 05:26:02;;;;;;;20.70;15.35;;;;;;;17.55;71.54;100693.38;4971078;28;20031;-92
2021/09/16 05:28:28;;;;;;;16.95;14.40;;;;;;;17.54;71.61;100694.38;4972971;28;20462;-92
2021/09/16 05:30:54;;;;;;;17.38;15.00;;;;;;;17.56;71.49;100690.59;4975895;28;20031;-91
2021/09/16 05:33:19;;;;;;;20.00;14.77;;;;;;;17.61;71.11;100709.59;4975499;28;20035;-92
2021/09/16 05:35:45;;;;;;;16.85;14.55;;;;;;;17.59;71.05;100708.03;4975690;28;20154;-92
2021/09/16 05:38:10;;;;;;;18.92;14.10;;;;;;;17.55;71.31;100701.34;4975744;28;20031;-91
2021/09/16 05:40:36;;;;;;;24.23;16.38;;;;;;;17.49;71.50;100708.06;4974482;28;20466;-91
2021/09/16 05:43:01;;;;;;;21.73;16.50;;;;;;;17.36;72.62;100705.69;4975777;28;20026;-91
2021/09/16 05:45:27;;;;;;;20.65;14.88;;;;;;;17.52;72.66;100710.44;4975677;28;20493;-91
2021/09/16 05:47:52;;;;;;;24.95;17.02;;;;;;;17.55;72.54;100711.97;4975305;28;20070;-92
2021/09/16 05:50:18;;;;;;;27.10;17.88;;;;;;;17.60;72.62;100713.22;4975635;28;20038;-91
2021/09/16 05:52:43;;;;;;;21.83;15.93;;;;;;;17.63;72.69;100714.75;4974416;28;20023;-92
2021/09/16 05:55:10;;;;;;;19.45;14.88;;;;;;;17.71;72.46;100717.50;4973874;28;20042;-92
2021/09/16 05:57:36;;;;;;;21.75;16.92;;;;;;;17.57;72.47;100721.44;4975406;28;20055;-92
2021/09/16 06:00:07;;;;;;;26.27;18.27;;;;;;;17.53;73.24;100732.50;4975917;28;20082;-92
2021/09/16 06:02:33;;;;;;;26.27;17.50;;;;;;;17.58;73.38;100725.78;4977804;28;20022;-93
2021/09/16 06:04:59;;;;;;;22.05;16.73;;;;;;;17.52;72.96;100725.53;4989930;28;20382;-92
2021/09/16 06:07:24;;;;;;;22.27;15.93;;;;;;;17.60;73.04;100726.50;4993918;28;20491;-92
2021/09/16 06:09:50;;;;;;;26.98;15.73;;;;;;;17.71;73.11;100740.59;4994861;28;20026;-95
2021/09/16 06:12:16;;;;;;;20.60;16.10;;;;;;;17.70;72.58;100745.06;4994798;28;20026;-95
2021/09/16 06:14:41;;;;;;;22.30;15.90;;;;;;;17.70;72.68;100741.59;4986471;28;20035;-92
2021/09/16 06:17:07;;;;;;;27.00;16.63;;;;;;;17.75;72.67;100739.31;4974821;28;20038;-95
2021/09/16 06:19:33;;;;;;;22.50;15.57;;;;;;;17.91;72.52;100747.59;4975970;28;20027;-95
2021/09/16 06:21:58;;;;;;;25.52;15.93;;;;;;;17.89;72.48;100748.69;4974512;28;20465;-94
2021/09/16 06:24:24;;;;;;;23.08;17.60;;;;;;;17.98;72.78;100758.47;4975047;28;20037;-91
2021/09/16 06:26:50;;;;;;;22.20;15.35;;;;;;;18.04;72.29;100761.38;4983943;28;20469;-91
2021/09/16 06:29:15;;;;;;;22.10;16.98;;;;;;;18.11;72.18;100761.66;4983879;28;20039;-91
2021/09/16 06:31:40;;;;;;;27.45;16.55;;;;;;;18.25;72.25;100773.63;4979630;28;20109;-91
2021/09/16 06:34:06;;;;;;;23.80;17.02;;;;;;;18.31;72.25;100780.19;4981847;28;20034;-91
2021/09/16 06:36:32;;;;;;;22.58;17.55;;;;;;;18.39;72.33;100777.63;4995811;28;20037;-91
2021/09/16 06:38:57;;;;;;;24.27;17.92;;;;;;;18.46;72.44;100770.72;4994165;28;20440;-91
2021/09/16 06:41:22;;;;;;;25.27;17.95;;;;;;;18.56;72.49;100782.19;4992480;28;20669;-91
2021/09/16 06:43:48;;;;;;;25.67;17.33;;;;;;;18.65;72.46;100783.13;4993951;28;20038;-91
2021/09/16 06:46:13;;;;;;;28.08;19.00;;;;;;;18.69;72.01;100778.34;4993889;28;20026;-91
2021/09/16 06:48:39;;;;;;;26.08;17.88;;;;;;;18.74;72.16;100768.06;4980824;28;20516;-91
2021/09/16 06:51:04;;;;;;;31.92;17.63;;;;;;;18.82;72.42;100768.22;4973224;28;20027;-91
2021/09/16 06:53:30;;;;;;;23.40;16.40;;;;;;;18.96;72.49;100770.38;4974573;28;20058;-91
2021/09/16 06:55:55;;;;;;;23.08;17.15;;;;;;;18.98;72.72;100747.09;4974128;28;20081;-92
2021/09/16 06:58:20;;;;;;;19.98;15.18;;;;;;;19.16;72.72;100763.09;4985827;28;20031;-91
2021/09/16 07:00:46;;;;;;;24.52;15.60;;;;;;;19.19;72.67;100773.44;4974122;28;20046;-91
2021/09/16 07:03:12;;;;;;;23.83;16.35;;;;;;;19.21;72.47;100771.47;4980119;28;20076;-90
2021/09/16 07:05:37;;;;;;;23.52;16.48;;;;;;;19.22;72.11;100772.28;4979349;28;20096;-91
2021/09/16 07:08:03;;;;;;;23.27;17.27;;;;;;;19.19;71.45;100773.44;4974188;28;20301;-91
2021/09/16 07:10:28;;;;;;;24.25;16.83;;;;;;;19.20;71.20;100763.63;4976032;28;20027;-90
2021/09/16 07:12:54;;;;;;;23.38;16.38;;;;;;;19.26;71.60;100773.66;4972520;28;20027;-91
2021/09/16 07:15:19;;;;;;;23.20;15.65;;;;;;;19.39;71.55;100782.13;4982314;28;20524;-91
2021/09/16 07:17:45;;;;;;;23.35;15.13;;;;;;;19.49;71.22;100778.50;4987412;28;20027;-91
2021/09/16 07:20:11;;;;;;;21.85;15.82;;;;;;;19.55;71.52;100780.56;4975804;28;20390;-91
2021/09/16 07:22:38;;;;;;;23.10;14.60;;;;;;;19.56;70.99;100776.91;4975287;28;20111;-92
2021/09/16 07:25:06;;;;;;;23.75;17.80;;;;;;;19.65;71.17;100775.16;4988176;28;20037;-92
2021/09/16 07:27:31;;;;;;;20.40;15.15;;;;;;;19.70;71.09;100781.69;4976106;28;20486;-91
2021/09/16 07:29:56;;;;;;;20.60;15.77;;;;;;;19.73;70.59;100778.75;4973340;28;20039;-91
2021/09/16 07:32:22;;;;;;;22.88;15.25;;;;;;;19.92;70.98;100776.88;4973632;28;20039;-91
2021/09/16 07:34:47;;;;;;;20.83;14.77;;;;;;;20.12;70.86;100773.03;4990618;28;20034;-91
2021/09/16 07:37:13;;;;;;;21.00;15.30;;;;;;;20.36;70.29;100779.50;4991464;28;20121;-92
2021/09/16 07:39:38;;;;;;;21.58;14.75;;;;;;;20.62;69.84;100775.94;4976058;28;20030;-91
2021/09/16 07:42:04;;;;;;;22.98;14.45;;;;;;;20.87;68.63;100783.03;4973691;28;20049;-91
2021/09/16 07:44:29;;;;;;;19.45;14.27;;;;;;;21.23;68.22;100781.97;4972236;28;20070;-91
2021/09/16 07:46:54;;;;;;;21.33;14.38;;;;;;;21.44;67.30;100784.19;4973556;28;20410;-91
2021/09/16 07:49:20;;;;;;;21.42;14.88;;;;;;;21.66;67.48;100767.47;4973412;28;20033;-92
2021/09/16 07:51:45;;;;;;;21.58;13.52;;;;;;;22.10;65.65;100782.31;4972580;28;20023;-91
2021/09/16 07:54:11;;;;;;;30.65;15.82;;;;;;;22.67;64.42;100778.63;4972866;28;20023;-90
2021/09/16 07:56:39;;;;;;;23.52;14.50;;;;;;;22.96;64.45;100776.13;4973374;28;20082;-91
2021/09/16 07:59:05;;;;;;;18.08;13.00;;;;;;;23.45;63.03;100780.34;4973263;28;20109;-91
2021/09/16 08:01:30;;;;;;;16.63;12.85;;;;;;;23.45;63.64;100780.34;4972766;28;20033;-91
2021/09/16 08:03:56;;;;;;;16.67;12.13;;;;;;;24.06;61.68;100777.66;4971891;28;20034;-91
2021/09/16 08:06:21;;;;;;;22.02;12.85;;;;;;;25.58;60.86;100776.19;4973311;28;20050;-91
2021/09/16 08:08:47;;;;;;;13.10;10.98;;;;;;;26.48;57.47;100779.91;4973705;28;20403;-91
2021/09/16 08:11:12;;;;;;;12.90;9.68;;;;;;;26.97;54.78;100780.72;4973308;28;20034;-91
2021/09/16 08:13:37;;;;;;;11.80;8.25;;;;;;;27.98;52.06;100783.38;4973165;28;20496;-91
2021/09/16 08:16:03;;;;;;;11.88;9.05;;;;;;;27.90;50.56;100780.84;4973114;28;20035;-91
2021/09/16 08:18:29;;;;;;;8.45;7.60;;;;;;;28.97;48.55;100778.66;4990515;28;20027;-90
2021/09/16 08:20:54;;;;;;;8.90;6.43;;;;;;;29.63;46.58;100779.28;4990898;28;20485;-91
2021/09/16 08:23:21;;;;;;;6.88;4.70;;;;;;;28.92;47.90;100781.19;4983375;28;20540;-91
2021/09/16 08:25:47;;;;;;;8.50;4.60;;;;;;;28.55;48.48;100782.81;4983440;28;20477;-90
2021/09/16 08:28:13;;;;;;;8.35;4.50;;;;;;;28.05;48.10;100777.94;4973053;28;20397;-91
2021/09/16 08:30:40;;;;;;;24.33;5.20;;;;;;;27.54;48.72;100786.66;4971496;28;20437;-91
2021/09/16 08:33:05;;;;;;;6.90;3.63;;;;;;;26.98;50.25;100785.94;4972533;28;20082;-91
2021/09/16 08:35:31;;;;;;;5.50;3.65;;;;;;;27.23;50.09;100791.59;4973315;28;20054;-90
2021/09/16 08:37:56;;;;;;;8.30;3.08;;;;;;;27.61;50.42;100791.03;4972651;28;20430;-91
2021/09/16 08:40:22;;;;;;;5.72;3.25;;;;;;;27.37;49.80;100783.53;4991249;28;20034;-90
2021/09/16 08:42:49;;;;;;;3.10;2.55;;;;;;;26.62;50.31;100788.88;4976737;28;20066;-91
2021/09/16 08:45:16;;;;;;;3.20;2.55;;;;;;;26.89;51.93;100787.97;4972252;28;20397;-91
2021/09/16 08:47:44;;;;;;;15.93;4.15;;;;;;;28.64;48.95;100787.75;4984166;28;20076;-92
2021/09/16 08:50:11;;;;;;;21.75;4.32;;;;;;;29.14;46.29;100781.69;4988740;28;20026;-91
2021/09/16 08:52:40;;;;;;;6.18;3.10;;;;;;;28.07;47.66;100787.47;4982265;28;20026;-90
2021/09/16 08:55:08;;;;;;;5.22;2.42;;;;;;;28.34;47.53;100792.84;4979042;28;20026;-90
2021/09/16 08:57:36;;;;;;;5.13;3.03;;;;;;;28.92;46.24;100789.28;4982264;28;20496;-88
2021/09/16 09:00:08;;;;;;;6.55;2.13;;;;;;;30.31;44.95;100785.72;4972565;28;20114;-89
2021/09/16 09:02:35;;;;;;;4.53;2.15;;;;;;;31.07;42.38;100784.38;4984782;28;20089;-89
2021/09/16 09:05:02;;;;;;;5.50;2.55;;;;;;;31.26;40.88;100781.56;4995767;28;20030;-89
2021/09/16 09:07:43;;;;;;;10.93;2.60;;;;;;;31.91;40.42;100787.00;4995767;28;20026;-88
2021/09/16 09:10:31;;;;;;;2.00;1.80;;;;;;;30.07;41.59;100782.81;4995846;28;20037;-89
2021/09/16 09:12:57;;;;;;;3.25;1.90;;;;;;;30.73;42.16;100788.53;4995743;28;20038;-89
2021/09/16 09:15:23;;;;;;;3.67;1.92;;;;;;;30.59;42.28;100786.03;4982115;28;20103;-89
2021/09/16 09:18:06;;;;;;;5.00;2.10;;;;;;;30.54;41.87;100788.59;4976204;28;20030;-89
2021/09/16 09:20:33;;;;;;;5.78;2.35;;;;;;;29.58;43.36;100782.66;4974894;28;20430;-89
2021/09/16 09:22:59;;;;;;;3.90;2.10;;;;;;;31.03;41.40;100786.72;4976137;28;20037;-89
2021/09/16 09:25:28;;;;;;;3.63;2.08;;;;;;;32.08;40.04;100795.28;4975768;28;20043;-89
2021/09/16 09:27:55;;;;;;;5.65;1.10;;;;;;;32.57;38.60;100790.38;4975902;28;20085;-89
2021/09/16 09:30:21;;;;;;;2.13;1.50;;;;;;;33.38;37.61;100792.97;4975737;28;20035;-89
2021/09/16 09:32:58;;;;;;;2.38;1.08;;;;;;;33.61;35.88;100795.75;4975659;28;20065;-89
2021/09/16 09:35:40;;;;;;;2.60;1.17;;;;;;;34.04;36.13;100791.53;4975847;28;20043;-89
2021/09/16 09:38:16;;;;;;;2.35;1.35;;;;;;;35.02;34.23;100788.94;4975934;28;20026;-89
2021/09/16 09:40:43;;;;;;;2.05;1.13;;;;;;;33.98;35.19;100796.09;4975862;28;20023;-89
2021/09/16 09:43:33;;;;;;;1.65;0.80;;;;;;;33.41;35.61;100801.72;4975795;28;20030;-89
2021/09/16 09:46:10;;;;;;;1.98;0.82;;;;;;;34.14;36.06;100805.28;4975540;28;20030;-89
2021/09/16 09:48:45;;;;;;;1.75;1.15;;;;;;;35.20;34.75;100800.59;4975436;28;20026;-89
2021/09/16 09:51:13;;;;;;;1.25;0.70;;;;;;;33.76;35.27;100788.69;4975662;28;20062;-89
2021/09/16 09:53:44;;;;;;;68.68;8.32;;;;;;;33.59;36.24;100796.84;4975531;28;20074;-89
2021/09/16 09:56:15;;;;;;;14.35;2.00;;;;;;;34.66;34.31;100787.72;4975101;28;20113;-89
2021/09/16 09:58:40;;;;;;;25.35;2.38;;;;;;;34.63;33.80;100780.84;4975256;28;20066;-89
2021/09/16 10:01:44;;;;;;;37.67;5.25;;;;;;;35.24;33.11;100780.69;4974905;28;20460;-90
2021/09/16 10:04:25;;;;;;;10.32;0.90;;;;;;;35.72;32.37;100786.28;4934450;29;20051;-90
2021/09/16 10:06:50;;;;;;;1.55;0.65;;;;;;;36.26;31.33;100774.31;4918695;29;20031;-89
2021/09/16 10:09:16;;;;;;;67.82;7.07;;;;;;;36.10;30.92;100781.56;4946625;28;20519;-90
2021/09/16 10:11:43;;;;;;;27.95;4.20;;;;;;;36.94;28.96;100782.47;4955685;28;20031;-89
2021/09/16 10:14:08;;;;;;;0.93;0.35;;;;;;;36.99;29.30;100785.22;4955376;28;20034;-90
2021/09/16 10:16:33;;;;;;;21.92;3.25;;;;;;;36.95;29.74;100781.38;4955774;28;20035;-90
2021/09/16 10:18:59;;;;;;;2.00;1.00;;;;;;;36.90;29.90;100770.41;4974689;28;20061;-91
2021/09/16 10:21:25;;;;;;;6.18;0.98;;;;;;;37.18;28.88;100780.03;4974986;28;20548;-90
2021/09/16 10:23:55;;;;;;;1.52;0.70;;;;;;;37.87;28.04;100773.13;4974758;28;20031;-90
2021/09/16 10:26:34;;;;;;;2.00;0.63;;;;;;;36.85;28.84;100771.25;4974343;28;20039;-90
2021/09/16 10:28:59;;;;;;;3.13;0.70;;;;;;;37.24;28.77;100772.66;4975104;28;20031;-90
2021/09/16 10:31:25;;;;;;;0.85;0.50;;;;;;;37.74;28.76;100768.25;4974740;28;20093;-90
2021/09/16 10:33:52;;;;;;;1.33;0.50;;;;;;;37.65;29.15;100761.69;4974864;28;20027;-91
2021/09/16 10:36:17;;;;;;;1.17;0.60;;;;;;;35.62;30.27;100759.69;4974827;28;20098;-90
2021/09/16 10:38:47;;;;;;;0.90;0.43;;;;;;;36.55;30.20;100763.75;4974657;28;20381;-90
2021/09/16 10:41:19;;;;;;;1.55;0.40;;;;;;;36.05;30.79;100759.69;4974364;28;20468;-90
2021/09/16 10:43:48;;;;;;;4.10;0.30;;;;;;;36.70;29.10;100758.34;4974289;28;20054;-90
2021/09/16 10:46:43;;;;;;;0.88;0.20;;;;;;;37.38;28.31;100756.50;4974403;28;20093;-90
2021/09/16 10:49:24;;;;;;;1.67;0.30;;;;;;;37.13;27.89;100760.06;4974373;28;20107;-90
2021/09/16 10:51:57;;;;;;;0.47;0.20;;;;;;;35.70;29.45;100758.41;4974947;28;20110;-90
2021/09/16 10:54:23;;;;;;;2.88;0.40;;;;;;;35.27;30.65;100757.50;4973411;28;20062;-90
2021/09/16 10:57:06;;;;;;;1.10;0.40;;;;;;;35.72;30.06;100759.81;4974108;28;20054;-90
2021/09/16 10:59:49;;;;;;;1.95;0.40;;;;;;;35.06;31.58;100751.88;4973678;28;20333;-90
2021/09/16 11:02:22;;;;;;;4.57;0.40;;;;;;;35.90;30.06;100753.09;4974301;28;20035;-90
2021/09/16 11:04:54;;;;;;;17.15;2.08;;;;;;;35.69;30.71;100746.66;4973614;28;20031;-90
2021/09/16 11:07:31;;;;;;;18.35;2.05;;;;;;;35.08;31.48;100757.06;4974086;28;20030;-90
2021/09/16 11:10:18;;;;;;;2.92;0.50;;;;;;;34.03;32.98;100759.94;4974059;28;20026;-90
2021/09/16 11:13:02;;;;;;;1.08;0.40;;;;;;;33.77;33.09;100756.84;4973776;28;20362;-89